createdAt,value
2019-02-18T00:00:50.428Z,3.84
2019-02-18T00:03:18.960Z,4.14
2019-02-18T00:05:47.163Z,3.98
2019-02-18T00:08:15.298Z,4.08
2019-02-18T00:10:43.381Z,3.95
2019-02-18T00:13:11.499Z,3.96
2019-02-18T00:15:39.649Z,3.89
2019-02-18T00:18:07.798Z,3.93
2019-02-18T00:20:36.133Z,4.01
2019-02-18T00:23:04.635Z,4.03
2019-02-18T00:25:32.702Z,3.98
2019-02-18T00:28:00.820Z,3.95
2019-02-18T00:30:28.927Z,3.86
2019-02-18T00:32:57.171Z,3.79
2019-02-18T00:35:25.336Z,3.76
2019-02-18T00:37:53.412Z,3.82
2019-02-18T00:40:22.097Z,3.73
2019-02-18T00:42:50.539Z,4.02
2019-02-18T00:45:18.721Z,3.88
2019-02-18T00:47:48.102Z,3.88
2019-02-18T00:50:16.434Z,3.99
2019-02-18T00:52:44.891Z,4.06
2019-02-18T00:55:12.937Z,3.80
2019-02-18T00:57:41.013Z,3.79
2019-02-18T01:00:11.070Z,3.59
2019-02-18T01:02:39.532Z,3.52
2019-02-18T01:05:08.209Z,3.41
2019-02-18T01:07:36.553Z,3.34
2019-02-18T01:10:05.886Z,3.28
2019-02-18T01:12:33.977Z,3.37
2019-02-18T01:15:04.687Z,3.28
2019-02-18T01:17:33.030Z,3.15
2019-02-18T01:20:01.158Z,3.14
2019-02-18T01:22:29.454Z,3.11
2019-02-18T01:24:57.546Z,2.96
2019-02-18T01:27:26.015Z,2.97
2019-02-18T01:29:54.170Z,2.96
2019-02-18T01:32:22.362Z,2.92
2019-02-18T01:34:50.488Z,2.90
2019-02-18T01:37:18.544Z,3.01
2019-02-18T01:39:46.649Z,2.88
2019-02-18T01:42:16.074Z,2.82
2019-02-18T01:44:44.211Z,2.81
2019-02-18T01:47:12.405Z,2.83
2019-02-18T01:49:41.123Z,2.84
2019-02-18T01:52:09.228Z,2.76
2019-02-18T01:54:38.511Z,2.78
2019-02-18T01:57:06.615Z,2.73
2019-02-18T01:59:34.670Z,2.68
2019-02-18T02:02:02.779Z,2.77
2019-02-18T02:04:30.983Z,2.80
2019-02-18T02:06:59.314Z,2.80
2019-02-18T02:09:27.952Z,2.77
2019-02-18T02:11:56.175Z,2.78
2019-02-18T02:14:24.243Z,2.69
2019-02-18T02:16:52.593Z,2.70
2019-02-18T02:19:20.922Z,2.66
2019-02-18T02:21:49.001Z,2.66
2019-02-18T02:24:17.459Z,2.54
2019-02-18T02:26:45.738Z,2.54
2019-02-18T02:29:13.843Z,2.55
2019-02-18T02:31:42.352Z,2.60
2019-02-18T02:34:11.400Z,2.54
2019-02-18T02:36:39.560Z,2.52
2019-02-18T02:39:07.994Z,2.46
2019-02-18T02:41:36.175Z,2.45
2019-02-18T02:44:04.314Z,2.40
2019-02-18T02:46:32.436Z,2.18
2019-02-18T02:49:01.661Z,2.17
2019-02-18T02:51:30.100Z,2.03
2019-02-18T02:53:58.522Z,2.08
2019-02-18T02:56:26.935Z,1.97
2019-02-18T02:58:55.102Z,1.81
2019-02-18T03:01:23.199Z,1.83
2019-02-18T03:03:51.494Z,2.01
2019-02-18T03:06:19.908Z,2.03
2019-02-18T03:08:48.103Z,2.01
2019-02-18T03:11:16.197Z,2.04
2019-02-18T03:13:44.273Z,2.03
2019-02-18T03:16:12.442Z,1.82
2019-02-18T03:18:40.806Z,1.68
2019-02-18T03:21:09.032Z,1.79
2019-02-18T03:23:37.144Z,1.71
2019-02-18T03:26:05.574Z,1.88
2019-02-18T03:29:29.848Z,1.93
2019-02-18T03:31:58.226Z,1.90
2019-02-18T03:34:40.762Z,1.76
2019-02-18T03:37:08.965Z,1.82
2019-02-18T03:39:37.154Z,1.82
2019-02-18T03:42:05.243Z,1.86
2019-02-18T03:44:33.447Z,1.81
2019-02-18T03:47:01.832Z,1.83
2019-02-18T03:49:29.899Z,1.75
2019-02-18T03:51:58.297Z,1.70
2019-02-18T03:54:26.455Z,1.70
2019-02-18T03:56:54.633Z,1.71
2019-02-18T03:59:22.822Z,1.70
2019-02-18T04:01:51.034Z,1.77
2019-02-18T04:04:19.153Z,1.70
2019-02-18T04:06:47.396Z,1.65
2019-02-18T04:09:15.498Z,1.59
2019-02-18T04:11:43.629Z,1.46
2019-02-18T04:14:11.808Z,1.54
2019-02-18T04:16:40.035Z,1.52
2019-02-18T04:19:08.225Z,1.71
2019-02-18T04:21:36.366Z,1.74
2019-02-18T04:24:04.476Z,1.72
2019-02-18T04:26:32.543Z,1.55
2019-02-18T04:29:00.769Z,1.54
2019-02-18T04:31:29.102Z,1.64
2019-02-18T04:33:57.221Z,1.66
2019-02-18T04:36:25.428Z,1.55
2019-02-18T04:38:54.387Z,1.65
2019-02-18T04:41:22.786Z,1.61
2019-02-18T04:43:51.178Z,1.55
2019-02-18T04:46:19.357Z,1.55
2019-02-18T04:48:47.472Z,1.56
2019-02-18T04:51:15.994Z,1.62
2019-02-18T04:53:44.077Z,1.58
2019-02-18T04:56:12.323Z,1.56
2019-02-18T04:58:40.485Z,1.65
2019-02-18T05:01:08.838Z,1.52
2019-02-18T05:03:36.931Z,1.56
2019-02-18T05:06:05.027Z,1.51
2019-02-18T05:08:33.525Z,1.43
2019-02-18T05:11:02.218Z,1.50
2019-02-18T05:13:30.292Z,1.55
2019-02-18T05:15:58.524Z,1.51
2019-02-18T05:18:26.701Z,1.48
2019-02-18T05:20:55.295Z,1.49
2019-02-18T05:23:23.484Z,1.51
2019-02-18T05:25:51.625Z,1.54
2019-02-18T05:28:19.774Z,1.48
2019-02-18T05:30:47.990Z,1.44
2019-02-18T05:33:16.223Z,1.43
2019-02-18T05:35:44.341Z,1.44
2019-02-18T05:38:12.675Z,1.55
2019-02-18T05:40:40.750Z,1.66
2019-02-18T05:43:09.158Z,1.66
2019-02-18T05:45:37.391Z,1.69
2019-02-18T05:48:05.470Z,1.61
2019-02-18T05:50:33.581Z,1.54
2019-02-18T05:53:02.541Z,1.50
2019-02-18T05:55:31.156Z,1.52
2019-02-18T05:57:59.810Z,1.36
2019-02-18T06:00:29.479Z,1.26
2019-02-18T06:02:58.153Z,1.25
2019-02-18T06:05:26.563Z,1.27
2019-02-18T06:07:54.677Z,1.31
2019-02-18T06:10:22.828Z,1.47
2019-02-18T06:12:51.334Z,1.47
2019-02-18T06:15:19.672Z,1.44
2019-02-18T06:17:47.788Z,1.48
2019-02-18T06:20:16.006Z,1.45
2019-02-18T06:22:44.161Z,1.56
2019-02-18T06:25:12.538Z,1.53
2019-02-18T06:27:40.765Z,1.45
2019-02-18T06:30:09.095Z,1.23
2019-02-18T06:32:37.373Z,1.35
2019-02-18T06:35:05.953Z,1.42
2019-02-18T06:37:34.410Z,1.43
2019-02-18T06:40:02.795Z,1.57
2019-02-18T06:42:30.908Z,1.56
2019-02-18T06:45:20.388Z,1.61
2019-02-18T06:47:48.562Z,1.59
2019-02-18T06:50:17.094Z,1.89
2019-02-18T06:52:45.189Z,1.75
2019-02-18T06:55:13.373Z,1.65
2019-02-18T06:58:04.678Z,1.70
2019-02-18T07:00:44.824Z,1.67
2019-02-18T07:03:21.362Z,1.77
2019-02-18T07:05:57.063Z,1.75
2019-02-18T07:08:43.429Z,1.72
2019-02-18T07:11:16.155Z,1.87
2019-02-18T07:13:44.356Z,1.84
2019-02-18T07:16:12.407Z,1.87
2019-02-18T07:18:40.712Z,1.92
2019-02-18T07:21:08.795Z,1.98
2019-02-18T07:23:37.043Z,2.01
2019-02-18T07:26:05.282Z,2.08
2019-02-18T07:28:33.466Z,2.09
2019-02-18T07:31:01.922Z,2.10
2019-02-18T07:33:30.071Z,2.09
2019-02-18T07:35:58.207Z,2.07
2019-02-18T07:38:26.254Z,2.21
2019-02-18T07:40:54.502Z,2.42
2019-02-18T07:43:23.233Z,2.50
2019-02-18T07:45:51.687Z,2.46
2019-02-18T07:48:19.968Z,2.52
2019-02-18T07:50:48.156Z,2.56
2019-02-18T07:53:16.551Z,2.72
2019-02-18T07:55:44.788Z,2.86
2019-02-18T07:58:13.159Z,2.94
2019-02-18T08:00:41.279Z,3.06
2019-02-18T08:03:09.444Z,3.21
2019-02-18T08:05:37.837Z,3.36
2019-02-18T08:08:05.952Z,3.46
2019-02-18T08:10:34.149Z,3.62
2019-02-18T08:13:02.306Z,3.75
2019-02-18T08:15:30.400Z,3.89
2019-02-18T08:17:58.476Z,4.01
2019-02-18T08:20:26.942Z,4.13
2019-02-18T08:22:55.054Z,4.25
2019-02-18T08:25:23.177Z,4.36
2019-02-18T08:27:51.481Z,4.45
2019-02-18T08:30:19.605Z,4.62
2019-02-18T08:32:47.690Z,4.78
2019-02-18T08:35:16.393Z,4.95
2019-02-18T08:37:44.596Z,5.15
2019-02-18T08:40:21.706Z,5.27
2019-02-18T08:42:42.659Z,5.42
2019-02-18T08:45:15.329Z,5.47
2019-02-18T08:47:43.426Z,5.64
2019-02-18T08:50:11.788Z,5.79
2019-02-18T08:52:39.982Z,5.93
2019-02-18T08:55:10.712Z,6.04
2019-02-18T08:57:38.797Z,6.02
2019-02-18T09:00:13.650Z,6.05
2019-02-18T09:02:42.099Z,6.19
2019-02-18T09:05:10.432Z,6.26
2019-02-18T09:07:40.287Z,6.37
2019-02-18T09:10:10.042Z,6.49
2019-02-18T09:12:38.128Z,6.59
2019-02-18T09:15:07.436Z,6.67
2019-02-18T09:17:36.028Z,6.80
2019-02-18T09:20:06.395Z,6.90
2019-02-18T09:22:53.881Z,7.02
2019-02-18T09:25:44.048Z,7.10
2019-02-18T09:28:13.747Z,7.37
2019-02-18T09:30:44.568Z,7.37
2019-02-18T09:33:13.032Z,7.48
2019-02-18T09:35:41.195Z,7.54
2019-02-18T09:38:09.273Z,7.69
2019-02-18T09:40:45.117Z,8.01
2019-02-18T09:43:07.374Z,8.19
2019-02-18T09:45:35.484Z,8.32
2019-02-18T09:48:05.449Z,8.37
2019-02-18T09:50:33.716Z,8.41
2019-02-18T09:53:02.986Z,8.84
2019-02-18T09:55:31.580Z,8.88
2019-02-18T09:57:59.999Z,9.01
2019-02-18T10:00:28.281Z,8.99
2019-02-18T10:03:04.812Z,8.96
2019-02-18T10:05:32.851Z,9.01
2019-02-18T10:08:01.223Z,9.21
2019-02-18T10:10:29.622Z,9.41
2019-02-18T10:12:59.606Z,9.62
2019-02-18T10:15:27.810Z,9.60
2019-02-18T10:17:56.300Z,9.69
2019-02-18T10:20:24.611Z,9.82
2019-02-18T10:22:52.821Z,9.79
2019-02-18T10:25:20.928Z,10.12
2019-02-18T10:27:50.835Z,10.08
2019-02-18T10:30:20.742Z,10.07
2019-02-18T10:32:49.006Z,10.16
2019-02-18T10:35:17.332Z,10.10
2019-02-18T10:37:54.667Z,10.44
2019-02-18T10:40:15.494Z,10.64
2019-02-18T10:42:43.793Z,10.52
2019-02-18T10:45:12.828Z,10.52
2019-02-18T10:47:40.990Z,10.72
2019-02-18T10:50:10.023Z,10.80
2019-02-18T10:52:38.329Z,10.81
2019-02-18T10:55:07.522Z,10.96
2019-02-18T10:57:35.970Z,10.91
2019-02-18T11:00:08.836Z,10.99
2019-02-18T11:02:37.198Z,11.05
2019-02-18T11:05:06.604Z,11.17
2019-02-18T11:07:34.841Z,11.30
2019-02-18T11:10:05.121Z,11.34
2019-02-18T11:12:33.546Z,11.58
2019-02-18T11:15:01.652Z,11.74
2019-02-18T11:17:38.684Z,11.64
2019-02-18T11:20:09.799Z,11.67
2019-02-18T11:22:38.140Z,11.73
2019-02-18T11:25:07.688Z,11.74
2019-02-18T11:27:37.566Z,11.92
2019-02-18T11:30:09.429Z,11.98
2019-02-18T11:32:37.805Z,12.13
2019-02-18T11:35:06.290Z,12.28
2019-02-18T11:37:34.356Z,12.43
2019-02-18T11:40:02.641Z,12.31
2019-02-18T11:42:30.758Z,12.43
2019-02-18T11:44:59.506Z,12.48
2019-02-18T11:47:28.223Z,12.50
2019-02-18T11:49:56.502Z,12.55
2019-02-18T11:52:24.592Z,12.63
2019-02-18T11:54:52.668Z,12.57
2019-02-18T11:57:20.806Z,12.64
2019-02-18T11:59:49.032Z,12.57
2019-02-18T12:02:17.416Z,12.48
2019-02-18T12:04:45.497Z,12.71
2019-02-18T12:07:13.895Z,12.73
2019-02-18T12:09:42.127Z,12.75
2019-02-18T12:12:10.299Z,12.91
2019-02-18T12:14:39.375Z,12.85
2019-02-18T12:17:07.443Z,12.87
2019-02-18T12:19:36.188Z,13.03
2019-02-18T12:22:04.970Z,13.09
2019-02-18T12:24:33.150Z,13.14
2019-02-18T12:27:01.235Z,13.36
2019-02-18T12:29:29.286Z,13.21
2019-02-18T12:31:58.001Z,13.21
2019-02-18T12:34:26.166Z,13.46
2019-02-18T12:36:54.746Z,13.36
2019-02-18T12:39:22.918Z,13.28
2019-02-18T12:41:51.314Z,13.33
2019-02-18T12:44:19.472Z,13.30
2019-02-18T12:46:47.863Z,13.38
2019-02-18T12:49:16.342Z,13.47
2019-02-18T12:51:45.298Z,13.69
2019-02-18T12:54:13.396Z,13.67
2019-02-18T12:56:41.828Z,13.83
2019-02-18T12:59:10.170Z,13.86
2019-02-18T13:01:39.104Z,13.68
2019-02-18T13:04:07.339Z,13.85
2019-02-18T13:06:35.569Z,14.02
2019-02-18T13:09:05.387Z,13.91
2019-02-18T13:11:33.981Z,13.91
2019-02-18T13:14:02.283Z,13.82
2019-02-18T13:16:31.767Z,13.74
2019-02-18T13:18:59.874Z,13.99
2019-02-18T13:21:28.547Z,13.97
2019-02-18T13:23:56.730Z,14.36
2019-02-18T13:26:25.094Z,14.27
2019-02-18T13:28:53.599Z,14.10
2019-02-18T13:31:22.159Z,14.17
2019-02-18T13:33:50.242Z,14.04
2019-02-18T13:36:19.953Z,14.11
2019-02-18T13:38:48.763Z,14.25
2019-02-18T13:41:17.973Z,14.48
2019-02-18T13:43:46.108Z,14.46
2019-02-18T13:46:14.356Z,14.29
2019-02-18T13:48:42.623Z,14.17
2019-02-18T13:51:11.174Z,14.31
2019-02-18T13:53:39.355Z,14.31
2019-02-18T13:56:07.931Z,14.26
2019-02-18T13:58:36.081Z,14.45
2019-02-18T14:01:05.605Z,14.34
2019-02-18T14:03:33.845Z,14.32
2019-02-18T14:06:02.112Z,14.18
2019-02-18T14:08:30.451Z,14.10
2019-02-18T14:10:58.528Z,14.09
2019-02-18T14:13:27.191Z,14.18
2019-02-18T14:15:55.837Z,14.10
2019-02-18T14:18:23.916Z,14.28
2019-02-18T14:20:52.395Z,14.06
2019-02-18T14:23:20.734Z,14.03
2019-02-18T14:25:48.990Z,14.07
2019-02-18T14:28:18.947Z,14.00
2019-02-18T14:30:47.179Z,13.96
2019-02-18T14:33:17.332Z,13.99
2019-02-18T14:35:46.031Z,14.10
2019-02-18T14:38:14.086Z,13.94
2019-02-18T14:40:42.319Z,13.93
2019-02-18T14:43:10.799Z,13.92
2019-02-18T14:45:39.004Z,14.00
2019-02-18T14:48:08.852Z,13.78
2019-02-18T14:50:36.952Z,13.89
2019-02-18T14:53:05.217Z,13.85
2019-02-18T14:55:33.501Z,13.88
2019-02-18T14:58:03.129Z,13.85
2019-02-18T15:00:31.328Z,13.72
2019-02-18T15:03:01.271Z,13.73
2019-02-18T15:05:29.466Z,13.68
2019-02-18T15:07:57.501Z,13.78
2019-02-18T15:10:25.950Z,13.64
2019-02-18T15:12:54.053Z,13.55
2019-02-18T15:15:22.122Z,13.44
2019-02-18T15:17:50.238Z,13.51
2019-02-18T15:20:18.811Z,13.66
2019-02-18T15:22:47.414Z,13.31
2019-02-18T15:25:15.977Z,13.44
2019-02-18T15:27:45.891Z,13.25
2019-02-18T15:30:15.151Z,13.19
2019-02-18T15:32:43.356Z,13.19
2019-02-18T15:35:11.534Z,13.21
2019-02-18T15:37:39.635Z,12.99
2019-02-18T15:40:08.552Z,12.96
2019-02-18T15:42:42.181Z,12.75
2019-02-18T15:45:07.361Z,12.70
2019-02-18T15:47:35.565Z,12.89
2019-02-18T15:50:04.179Z,12.83
2019-02-18T15:52:32.250Z,12.69
2019-02-18T15:55:00.961Z,12.43
2019-02-18T15:57:29.305Z,12.53
2019-02-18T15:59:57.745Z,12.56
2019-02-18T16:02:25.843Z,12.08
2019-02-18T16:04:54.179Z,11.99
2019-02-18T16:07:22.681Z,11.90
2019-02-18T16:09:50.764Z,11.88
2019-02-18T16:12:18.846Z,11.96
2019-02-18T16:14:47.102Z,12.02
2019-02-18T16:17:15.180Z,11.84
2019-02-18T16:19:43.342Z,11.53
2019-02-18T16:22:11.508Z,11.28
2019-02-18T16:24:40.015Z,11.41
2019-02-18T16:27:08.596Z,11.22
2019-02-18T16:29:36.702Z,10.96
2019-02-18T16:32:05.730Z,10.92
2019-02-18T16:34:34.206Z,10.75
2019-02-18T16:37:02.726Z,10.53
2019-02-18T16:39:30.826Z,10.48
2019-02-18T16:41:59.268Z,10.40
2019-02-18T16:44:27.444Z,10.27
2019-02-18T16:46:55.890Z,10.13
2019-02-18T16:49:23.955Z,10.03
2019-02-18T16:51:52.164Z,9.99
2019-02-18T16:54:20.854Z,9.84
2019-02-18T16:56:49.001Z,9.73
2019-02-18T16:59:17.066Z,9.64
2019-02-18T17:01:45.433Z,9.54
2019-02-18T17:04:13.533Z,9.44
2019-02-18T17:06:42.029Z,9.38
2019-02-18T17:09:13.544Z,9.32
2019-02-18T17:11:41.947Z,9.23
2019-02-18T17:14:10.182Z,9.14
2019-02-18T17:16:38.325Z,9.05
2019-02-18T17:19:06.382Z,8.97
2019-02-18T17:21:34.643Z,8.89
2019-02-18T17:24:02.720Z,8.80
2019-02-18T17:26:30.832Z,8.72
2019-02-18T17:28:58.937Z,8.61
2019-02-18T17:31:27.067Z,8.55
2019-02-18T17:33:55.317Z,8.48
2019-02-18T17:36:23.467Z,8.36
2019-02-18T17:38:51.562Z,8.23
2019-02-18T17:41:19.767Z,8.14
2019-02-18T17:43:48.577Z,8.04
2019-02-18T17:46:16.784Z,7.97
2019-02-18T17:48:44.884Z,7.91
2019-02-18T17:51:13.430Z,7.85
2019-02-18T17:53:41.509Z,7.74
2019-02-18T17:56:09.607Z,7.67
2019-02-18T17:58:37.767Z,7.72
2019-02-18T18:01:06.364Z,7.71
2019-02-18T18:03:34.517Z,7.56
2019-02-18T18:06:02.602Z,7.53
2019-02-18T18:08:30.728Z,7.43
2019-02-18T18:10:59.651Z,7.34
2019-02-18T18:13:27.768Z,7.30
2019-02-18T18:15:55.934Z,7.30
2019-02-18T18:18:24.142Z,7.25
2019-02-18T18:20:52.221Z,7.17
2019-02-18T18:23:20.359Z,7.12
2019-02-18T18:25:48.488Z,7.10
2019-02-18T18:28:16.970Z,7.02
2019-02-18T18:30:45.053Z,6.99
2019-02-18T18:33:13.212Z,7.00
2019-02-18T18:35:41.368Z,6.96
2019-02-18T18:38:09.492Z,6.95
2019-02-18T18:40:37.601Z,6.88
2019-02-18T18:43:05.767Z,6.87
2019-02-18T18:45:33.860Z,6.80
2019-02-18T18:48:02.057Z,6.79
2019-02-18T18:50:30.215Z,6.76
2019-02-18T18:52:58.438Z,6.70
2019-02-18T18:55:26.615Z,6.67
2019-02-18T18:57:55.254Z,6.64
2019-02-18T19:00:23.974Z,6.62
2019-02-18T19:02:52.243Z,6.53
2019-02-18T19:05:20.714Z,6.50
2019-02-18T19:07:48.886Z,6.47
2019-02-18T19:10:17.103Z,6.44
2019-02-18T19:12:45.325Z,6.38
2019-02-18T19:15:13.554Z,6.34
2019-02-18T19:17:41.957Z,6.30
2019-02-18T19:20:11.686Z,6.27
2019-02-18T19:22:39.891Z,6.23
2019-02-18T19:25:08.228Z,6.19
2019-02-18T19:27:36.337Z,6.19
2019-02-18T19:30:06.312Z,6.14
2019-02-18T19:32:34.407Z,6.12
2019-02-18T19:35:02.729Z,6.09
2019-02-18T19:37:30.864Z,6.05
2019-02-18T19:39:59.387Z,6.02
2019-02-18T19:42:27.460Z,5.96
2019-02-18T19:44:55.601Z,5.92
2019-02-18T19:47:23.698Z,5.86
2019-02-18T19:49:51.865Z,5.88
2019-02-18T19:52:20.070Z,5.80
2019-02-18T19:54:48.603Z,5.59
2019-02-18T19:57:16.786Z,5.39
2019-02-18T19:59:46.104Z,5.22
2019-02-18T20:02:14.276Z,5.32
2019-02-18T20:04:42.388Z,5.42
2019-02-18T20:07:10.909Z,5.55
2019-02-18T20:09:39.180Z,5.49
2019-02-18T20:12:07.327Z,5.52
2019-02-18T20:14:35.460Z,5.45
2019-02-18T20:17:03.837Z,5.46
2019-02-18T20:19:31.894Z,5.36
2019-02-18T20:22:00.528Z,5.27
2019-02-18T20:24:28.616Z,5.22
2019-02-18T20:26:56.966Z,5.23
2019-02-18T20:29:25.053Z,5.13
2019-02-18T20:31:53.215Z,5.16
2019-02-18T20:34:21.669Z,5.14
2019-02-18T20:36:49.820Z,5.09
2019-02-18T20:39:18.792Z,5.00
2019-02-18T20:41:47.959Z,5.06
2019-02-18T20:44:16.125Z,5.04
2019-02-18T20:46:44.254Z,4.97
2019-02-18T20:49:12.339Z,4.87
2019-02-18T20:51:40.500Z,4.93
2019-02-18T20:54:09.045Z,4.84
2019-02-18T20:56:37.158Z,4.79
2019-02-18T20:59:05.522Z,4.73
2019-02-18T21:01:33.640Z,4.89
2019-02-18T21:04:01.914Z,4.99
2019-02-18T21:06:30.023Z,5.01
2019-02-18T21:08:58.549Z,5.17
2019-02-18T21:11:26.609Z,4.93
2019-02-18T21:13:55.983Z,4.86
2019-02-18T21:16:25.658Z,4.89
2019-02-18T21:18:53.836Z,4.84
2019-02-18T21:21:21.993Z,4.83
2019-02-18T21:23:50.134Z,4.81
2019-02-18T21:26:18.189Z,4.83
2019-02-18T21:28:46.437Z,4.85
2019-02-18T21:31:14.507Z,4.86
2019-02-18T21:33:42.710Z,4.85
2019-02-18T21:36:10.815Z,4.83
2019-02-18T21:38:38.921Z,4.87
2019-02-18T21:41:07.361Z,4.87
2019-02-18T21:43:35.479Z,4.81
2019-02-18T21:46:03.582Z,4.78
2019-02-18T21:48:32.876Z,4.73
2019-02-18T21:51:00.931Z,4.70
2019-02-18T21:53:29.113Z,4.71
2019-02-18T21:55:57.523Z,4.71
2019-02-18T21:58:25.853Z,4.71
2019-02-18T22:00:53.871Z,4.73
2019-02-18T22:03:22.007Z,4.72
2019-02-18T22:05:50.247Z,4.75
2019-02-18T22:08:18.530Z,4.73
2019-02-18T22:10:46.608Z,4.74
2019-02-18T22:13:14.777Z,4.76
2019-02-18T22:15:42.942Z,4.75
2019-02-18T22:18:11.570Z,4.75
2019-02-18T22:20:39.637Z,4.76
2019-02-18T22:23:07.699Z,4.76
2019-02-18T22:25:35.836Z,4.74
2019-02-18T22:28:03.933Z,4.69
2019-02-18T22:30:32.678Z,4.74
2019-02-18T22:33:00.781Z,4.69
2019-02-18T22:35:29.961Z,4.65
2019-02-18T22:37:58.064Z,4.51
2019-02-18T22:40:26.121Z,4.63
2019-02-18T22:42:54.311Z,4.63
2019-02-18T22:45:24.161Z,4.66
2019-02-18T22:47:53.083Z,4.56
2019-02-18T22:50:21.123Z,4.61
2019-02-18T22:52:49.269Z,4.68
2019-02-18T22:55:17.482Z,4.63
2019-02-18T22:57:45.917Z,4.61
2019-02-18T23:01:02.292Z,4.63
2019-02-18T23:03:30.541Z,4.57
2019-02-18T23:05:58.870Z,4.66
2019-02-18T23:08:26.965Z,4.67
2019-02-18T23:10:55.320Z,4.67
2019-02-18T23:13:23.453Z,4.69
2019-02-18T23:15:51.525Z,4.78
2019-02-18T23:18:20.620Z,4.90
2019-02-18T23:20:48.683Z,4.93
2019-02-18T23:23:16.764Z,4.96
2019-02-18T23:25:44.859Z,4.92
2019-02-18T23:28:12.939Z,4.93
2019-02-18T23:30:41.101Z,4.94
2019-02-18T23:33:09.164Z,4.91
2019-02-18T23:35:38.913Z,4.91
2019-02-18T23:38:07.169Z,4.94
2019-02-18T23:40:35.456Z,4.94
2019-02-18T23:43:03.570Z,4.97
2019-02-18T23:45:31.746Z,5.02
2019-02-18T23:48:00.289Z,4.99
2019-02-18T23:50:28.380Z,5.02
2019-02-18T23:52:57.328Z,5.11
2019-02-18T23:55:26.193Z,5.10
2019-02-18T23:57:54.259Z,5.13
